Earlmount, Washington
Current Conditions -  °F | °C
As of 10:53 PM on Tuesday 25 Nov 2014 (Local Time) from KBFI Reporting Station
Overcast Overcast  
Wind Chill: 59°   Ceiling: 4600
Heat Index: 59°   Visibility: 10mi
Dew Point: 53°   Wind: 12mph
Humidity: 81%   Direction: 180°S
Pressure: 30.17"   Gusts: 21mph
Location:  47.6833°N, 122.123°W
Report Text: KBFI 260653Z 18010G18KT 10SM FEW018 BKN046 OVC075 15/12 A3017 RMK AO2 PK WND 18027/0603 SLP216 T01500117
Loading
Personal Weather Stations






























Interactive Weather Map New forecast layout! Learn more

10-Day Weather Forecast

Advertisements
Track Severe Weather on mobile